Ansley, NE (68814)

1:22 AM CST on November 29, 2014 (GMT -0600)
South of Town | Change Station
CLOSE
Current Station
Personal Weather Station
Location: Broken Bow, NE
Elevation: 2523 ft
Nearby Weather Stations

Elev 2523 ft 41.38 °N, 99.64 °W | Updated 1 minute ago

Clear
Clear
49.6 °F
Feels Like 50 °F
N
2.0
Wind Variable Wind from SW
Gusts 4.0 mph

Today
High -- | Low -- °F
--% Chance of Precip.
Yesterday
High -- | Low -- °F
Precip. -- in
7:41 AM 5:09 PM
Waxing Crescent, 49% visible
Pressure 29.58 in
Visibility 10.0 miles
Clouds Clear
Windchill 50 °F
Dew Point 24 °F
Humidity 37%
Rainfall 0.00 in
Snow Depth Not available.
UV 0 out of 12
Pollen .10 out of 12
Air Quality Not available.
Flu Activity Not available.
METAR KBBW 290653Z AUTO 24009KT 10SM CLR 06/M06 A2961 RMK AO2 SLP016 T00611056

More Conditions Fewer Conditions

Pressure 29.58 in
Visibility 10.0 miles
Clouds Clear
Windchill 50 °F
Dew Point 24 °F
Humidity 37%
Rainfall 0.00 in
Snow Depth Not available.
UV 0 out of 12
Pollen .10 out of 12
Air Quality Not available.
Flu Activity Not available.
METAR KBBW 290653Z AUTO 24009KT 10SM CLR 06/M06 A2961 RMK AO2 SLP016 T00611056

More Conditions Fewer Conditions

10-Day Weather Forecast

Almanac

Astronomy

Nov. 29, 2014 Rise Set
Actual Time
Civil Twilight
Nautical Twilight
Astronomical Twilight
Moon
Length of Visible Light
Length of Day
Tomorrow will be .
, % of the Moon is Illuminated

Today's Extremes

State Highs State Lows

Community

WunderPhotos

Upload Photos

1,774,432 photos uploaded!

WunderBlogs® & News

Nearby

Air Quality

  Air Quality AQ Index Pollutant
Not available.

Snow Depth

Station Depth Elevation

Earthquake Activity

City Distance Mag. Time & Date
Minimum magnitude displayed is 2.5.

Coastal Water Temperatures

Place Temperature

Nearby Weather Stations